Pagina principale
METAR-TAF:

METAR-TAF

Aeroporti :

Aeroporto di Verona-Villafranca

Verona, Italia

latitudine: 45-23N, longitudine: 010-52E, altezza: 67 m

Osservazione

Il bollettino è stato emesso 28 minuti fa, alle 09:50 UTC
Vento 7 kt da est/sud-est, variando fra est/nord-est e sud-est
Temperature 10°C
Umidità 46%
Pressione 1016 hPa
Visibilità 10 km o più
nessuna nube inferiore a 1500 m e nessun cumulonembo

METAR: LIPX 090950Z 11007KT 070V140 CAVOK 10/M01 Q1016

Ora: 11:18 (10:18 UTC)

Previsione

Il bollettino è stato emesso 2 ore e 18 minuti fa, alle 08:00 UTC
Previsione valida dal 09 alle 09 UTC al 09 alle 18 UTC
Vento 5 kt da direzioni variabili
Visibilità 10 km o più
Poco nuvoloso ad un'altezza di 6000 ft

TAF: LIPX 090800Z 0909/0918 VRB05KT 9999 FEW060

Osservazioni e previsioni meteorologiche di più di 4000 aeroporti (messaggi METAR e TAF).

Le stazioni disponibili sono rappresentate dai dischi gialli e rossi sulla carta.

Puntare il mouse per vedere il nome della stazione.

Clicca sopra per visualizzare le osservazioni e previsioni meteorologiche.

Per cambiare la mappa : fare clic sui pulsanti verdi con una croce nera per ingrandire, il pulsante verde con un trattino per diminuire, o sulla freccia verde per le mappe adiacenti.


METAR-TAF: